Terminal Aerodrome Forecast
Issued by NWS Topeka, KS

Home | Current Version | Previous Version | Graphics & Text | Print | Product List | Glossary On
Versions: 1 2 3 4 5 6 7 8 9 10 11 12 13 14 15 16 17
000
FTUS43 KTOP 220900 AAA
TAFTOP
TAF AMD
KTOP 220952Z 2210/2306 16010KT 5SM -RA BR OVC008
     FM221500 22010KT 3SM -RA BR OVC009
     FM222000 27012KT 6SM -RA BR BKN010=

USA.gov is the U.S. government's official web portal to all federal, state and local government web resources and services.